Shapleigh, Maine
Current Conditions -  °F | °C
As of 11:15 PM on Sunday 25 Jan 2015 (Local Time) from KSFM Reporting Station
Clear Clear  
Wind Chill:   Ceiling: Unl
Heat Index: 10°   Visibility: 10mi
Dew Point: -6°   Wind: 6mph
Humidity: 48%   Direction: 280°W
Pressure: 30.02"   Gusts: NA
Location:  43.54°N, 70.85°W
Report Text: KSFM 260415Z AUTO 28005KT 10SM CLR M12/M21 A3002 RMK AO1
Loading
Personal Weather Stations






























Interactive Weather Map New forecast layout! Learn more

10-Day Weather Forecast

Advertisements
Track Severe Weather on mobile